Hauptseite
METAR-TAF:

METAR-TAF

Flughäfen :

Caracas, Venezuela

Flughafen Caracas

Breite: 10-36N, Länge: 066-59W, Höhe: 43 m

Beobachtung

Neuester Wetterbericht von vor 16 Minuten, um 15:00 UTC
Wind 4 kt aus Nord/Nordost
Temperatur 31°C
Luftfeuchtigkeit 63%
Luftdruck 1012 hPa
Sichtweite 10 km oder mehr
Leicht bewölkt in der Höhe von 1600 ft

METAR: SVMI 291500Z 02004KT 9999 FEW016 31/23 Q1012

Zeit: 11:16 (15:16 UTC)

Prognose

Neuester Wetterbericht von vor 5 Stunden und 16 Minuten, um 10:00 UTC
Gültige Prognose vom 29 um 12 UTC bis 30 um 12 UTC
Wind 10 kt aus Ost
Sichtweite 10 km oder mehr
Leicht bewölkt in der Höhe von 1600 ft
Aufgelockert bewölkt in der Höhe von 1600 ft
Übergehend zu
vom 29 um 12 UTC bis 29 um 16 UTC
Wind 5 kt aus Nordost
Aufgelockert bewölkt in der Höhe von 1600 ft

TAF: SVMI 291000Z 2912/3012 09010KT 9999 FEW016 SCT016 TX31/18Z TN24/08Z BECMG 2912/2916 05005KT SCT016

Wetterbeobachtungen und Prognosen von mehr als 4000 Flughäfen (METAR und TAF Bericht).

Die verfügbaren Stationen werden durch gelbe und rote Markierungen auf der Karte dargestellt.

Führen Sie die Maus auf sie, um den Namen der Station zu sehen.

Darauf klicken, um die Beobachtung von Wetterbeobachtungen und Prognosen zu sehen.

Um die Karte zu ändern : klicken Sie auf den grünen Tasten mit einem schwarzen Kreuz Zum Vergrößern, auf den grünen Button mit einem Gedankenstrich zu verkleinern, oder auf die grünen Pfeile für benachbarte Karten.


METAR-TAF: